Dallas, Oregon
Current Conditions -  °F | °C
As of 11:56 AM on Tuesday 21 Oct 2014 (Local Time) from KSLE Reporting Station
Overcast Overcast  
Wind Chill: 59°   Ceiling: 6500
Heat Index: 59°   Visibility: 10mi
Dew Point: 49°   Wind: 17mph
Humidity: 69%   Direction: 180°S
Pressure: 30.01"   Gusts: NA
Location:  44.92°N, 123.31°W
Report Text: KSLE 211856Z 18015KT 10SM SCT036 BKN065 OVC100 15/09 A3001 RMK AO2 RAB19E31 SLP161 P0000 T01500094
Loading
Personal Weather Stations






























Interactive Weather Map
Tropical Storm Tracking
New forecast layout! Learn more

10-Day Weather Forecast

Advertisements
Track Severe Weather on mobile